Time;durP1;ratioP1;P1;durP2;ratioP2;P2;SDS_P1;SDS_P2;PMS_P1;PMS_P2;Temp;Humidity;BMP_temperature;BMP_pressure;BME280_temperature;BME280_humidity;BME280_pressure;Samples;Min_cycle;Max_cycle;Signal;HPM_P1;HPM_P2
2022/06/03 00:02:04;;;;;;;0.03;0.03;;;;;;;;;;5033101;28;20049;-69
2022/06/03 00:04:43;;;;;;;0.10;0.10;;;;;;;;;;5036106;28;20068;-70
2022/06/03 00:07:19;;;;;;;0.00;0.00;;;;;;;;;;5030919;28;20123;-69
2022/06/03 00:09:53;;;;;;;0.10;0.10;;;;;;;;;;5027635;28;20132;-68
2022/06/03 00:12:27;;;;;;;0.10;0.10;;;;;;;;;;5044296;28;20567;-68
2022/06/03 00:15:08;;;;;;;2.63;1.85;;;;;;;;;;5041111;28;20041;-68
2022/06/03 00:17:55;;;;;;;0.10;0.10;;;;;;;;;;5044531;28;20095;-68
2022/06/03 00:20:31;;;;;;;0.32;0.32;;;;;;;;;;5014415;28;20128;-68
2022/06/03 00:23:08;;;;;;;0.03;0.03;;;;;;;;;;5037370;28;20052;-68
2022/06/03 00:25:52;;;;;;;0.30;0.15;;;;;;;;;;5043651;28;20059;-70
2022/06/03 00:28:39;;;;;;;1.02;1.02;;;;;;;;;;5025612;28;20081;-68
2022/06/03 00:31:15;;;;;;;0.20;0.20;;;;;;;;;;5030932;28;20132;-69
2022/06/03 00:33:50;;;;;;;0.30;0.30;;;;;;;;;;5036055;28;20046;-69
2022/06/03 00:36:30;;;;;;;0.13;0.13;;;;;;;;;;5030486;28;20056;-69
2022/06/03 00:39:05;;;;;;;0.10;0.10;;;;;;;;;;5048860;28;20360;-68
2022/06/03 00:41:38;;;;;;;0.57;0.20;;;;;;;;;;5046247;28;20135;-69
2022/06/03 00:44:16;;;;;;;0.57;0.57;;;;;;;;;;5044924;28;20132;-68
2022/06/03 00:46:54;;;;;;;0.00;0.00;;;;;;;;;;5039447;28;20496;-72
2022/06/03 00:49:34;;;;;;;0.60;0.60;;;;;;;;;;5027793;28;20512;-68
2022/06/03 00:52:20;;;;;;;0.32;0.32;;;;;;;;;;5038347;28;20089;-68
2022/06/03 00:55:10;;;;;;;0.10;0.10;;;;;;;;;;5043608;28;20049;-69
2022/06/03 00:58:00;;;;;;;0.30;0.30;;;;;;;;;;5044648;28;20068;-68
2022/06/03 01:00:31;;;;;;;0.22;0.22;;;;;;;;;;5046985;28;20134;-68
2022/06/03 01:03:13;;;;;;;0.40;0.20;;;;;;;;;;5048603;28;20132;-70
2022/06/03 01:05:51;;;;;;;0.20;0.20;;;;;;;;;;5044722;28;20068;-69
2022/06/03 01:08:26;;;;;;;0.13;0.13;;;;;;;;;;5048142;28;20037;-68
2022/06/03 01:10:55;;;;;;;;;;;;;;;;;;5046766;28;20140;-68
2022/06/03 01:13:30;;;;;;;0.10;0.10;;;;;;;;;;5046554;28;21662;-68
2022/06/03 01:16:01;;;;;;;0.25;0.25;;;;;;;;;;5040220;28;20136;-68
2022/06/03 01:18:38;;;;;;;0.00;0.00;;;;;;;;;;5038277;28;20054;-68
2022/06/03 01:21:16;;;;;;;0.32;0.32;;;;;;;;;;5044604;28;20091;-69
2022/06/03 01:23:55;;;;;;;0.00;0.00;;;;;;;;;;5044054;28;20120;-69
2022/06/03 01:26:44;;;;;;;0.05;0.05;;;;;;;;;;5040658;28;20551;-68
2022/06/03 01:29:19;;;;;;;0.13;0.13;;;;;;;;;;5033621;28;20477;-69
2022/06/03 01:31:48;;;;;;;;;;;;;;;;;;5040943;28;20087;-68
2022/06/03 01:34:26;;;;;;;0.38;0.38;;;;;;;;;;5040013;28;19927;-68
2022/06/03 01:36:59;;;;;;;0.13;0.13;;;;;;;;;;5048001;28;20049;-69
2022/06/03 01:39:44;;;;;;;0.00;0.00;;;;;;;;;;5050226;28;20055;-68
2022/06/03 01:42:42;;;;;;;0.40;0.38;;;;;;;;;;5042611;28;20091;-69
2022/06/03 01:45:20;;;;;;;1.45;1.35;;;;;;;;;;5035917;28;20091;-68
2022/06/03 01:47:58;;;;;;;1.15;0.88;;;;;;;;;;5046920;28;20464;-68
2022/06/03 01:50:34;;;;;;;0.17;0.17;;;;;;;;;;5047290;28;20091;-68
2022/06/03 01:53:25;;;;;;;0.00;0.00;;;;;;;;;;5048303;28;20165;-70
2022/06/03 01:56:14;;;;;;;0.30;0.30;;;;;;;;;;5045670;28;20076;-72
2022/06/03 01:59:04;;;;;;;0.47;0.47;;;;;;;;;;5041401;28;20170;-68
2022/06/03 02:02:02;;;;;;;0.50;0.50;;;;;;;;;;5037972;28;20076;-69
2022/06/03 02:04:48;;;;;;;0.00;0.00;;;;;;;;;;5046084;28;20045;-68
2022/06/03 02:07:31;;;;;;;0.05;0.05;;;;;;;;;;5048927;28;20044;-68
2022/06/03 02:10:10;;;;;;;0.88;0.38;;;;;;;;;;5038723;28;20133;-68
2022/06/03 02:12:52;;;;;;;0.08;0.08;;;;;;;;;;5043116;28;20053;-68
2022/06/03 02:15:30;;;;;;;0.05;0.05;;;;;;;;;;5049519;28;20045;-69
2022/06/03 02:18:06;;;;;;;0.00;0.00;;;;;;;;;;5044992;28;20091;-68
2022/06/03 02:20:51;;;;;;;0.10;0.10;;;;;;;;;;5045100;28;20104;-68
2022/06/03 02:23:37;;;;;;;0.40;0.40;;;;;;;;;;5052074;28;20506;-68
2022/06/03 02:26:32;;;;;;;0.20;0.20;;;;;;;;;;5044781;28;20049;-68
2022/06/03 02:32:10;;;;;;;0.00;0.00;;;;;;;;;;5049245;28;20060;-69
2022/06/03 02:34:55;;;;;;;0.15;0.15;;;;;;;;;;5050974;28;20087;-68
2022/06/03 02:37:40;;;;;;;0.32;0.32;;;;;;;;;;5052907;28;20056;-68
2022/06/03 02:40:23;;;;;;;0.10;0.10;;;;;;;;;;5054363;28;20048;-68
2022/06/03 02:43:10;;;;;;;0.10;0.10;;;;;;;;;;5051118;28;20040;-68
2022/06/03 02:46:02;;;;;;;0.10;0.10;;;;;;;;;;5044143;28;20042;-69
2022/06/03 02:48:56;;;;;;;0.00;0.00;;;;;;;;;;5050136;28;20049;-70
2022/06/03 02:51:42;;;;;;;0.08;0.08;;;;;;;;;;5046351;28;20116;-68
2022/06/03 02:54:29;;;;;;;0.00;0.00;;;;;;;;;;5042437;28;20508;-69
2022/06/03 02:57:15;;;;;;;0.00;0.00;;;;;;;;;;5034547;28;20502;-68
2022/06/03 02:59:50;;;;;;;0.10;0.10;;;;;;;;;;5032656;28;20232;-69
2022/06/03 03:02:28;;;;;;;0.10;0.10;;;;;;;;;;5043054;28;20503;-68
2022/06/03 03:05:15;;;;;;;0.17;0.17;;;;;;;;;;5050794;28;20067;-68
2022/06/03 03:07:48;;;;;;;0.22;0.17;;;;;;;;;;5043892;28;20052;-67
2022/06/03 03:10:46;;;;;;;0.20;0.15;;;;;;;;;;5040989;28;20041;-68
2022/06/03 03:13:28;;;;;;;0.10;0.10;;;;;;;;;;4980107;28;20050;-67
2022/06/03 03:16:13;;;;;;;0.00;0.00;;;;;;;;;;5037466;28;20072;-68
2022/06/03 03:18:59;;;;;;;0.30;0.30;;;;;;;;;;5042084;28;20044;-68
2022/06/03 03:21:44;;;;;;;0.10;0.10;;;;;;;;;;4988146;28;20147;-68
2022/06/03 03:24:13;;;;;;;;;;;;;;;;;;5049241;28;20160;-68
2022/06/03 03:26:48;;;;;;;0.00;0.00;;;;;;;;;;5045371;28;19968;-71
2022/06/03 03:29:26;;;;;;;0.70;0.65;;;;;;;;;;5037998;28;20341;-68
2022/06/03 03:32:02;;;;;;;0.00;0.00;;;;;;;;;;5041638;28;20067;-68
2022/06/03 03:34:51;;;;;;;0.00;0.00;;;;;;;;;;5047580;28;20501;-71
2022/06/03 03:37:41;;;;;;;0.20;0.20;;;;;;;;;;5034574;28;20128;-68
2022/06/03 03:40:27;;;;;;;1.05;1.00;;;;;;;;;;5047852;28;20045;-68
2022/06/03 03:43:10;;;;;;;0.30;0.30;;;;;;;;;;5037354;28;20081;-68
2022/06/03 03:45:49;;;;;;;0.43;0.43;;;;;;;;;;5026294;28;20077;-68
2022/06/03 03:48:42;;;;;;;0.25;0.25;;;;;;;;;;5029996;28;20588;-68
2022/06/03 03:51:34;;;;;;;0.40;0.40;;;;;;;;;;5039784;28;20045;-68
2022/06/03 03:54:35;;;;;;;0.20;0.20;;;;;;;;;;5017043;28;20895;-68
2022/06/03 03:57:33;;;;;;;0.10;0.10;;;;;;;;;;5025054;28;20088;-68
2022/06/03 04:00:20;;;;;;;0.20;0.20;;;;;;;;;;5040357;28;20492;-68
2022/06/03 04:03:07;;;;;;;0.05;0.05;;;;;;;;;;5020421;28;20104;-68
2022/06/03 04:05:50;;;;;;;0.38;0.38;;;;;;;;;;5030215;28;20326;-68
2022/06/03 04:08:37;;;;;;;1.55;1.23;;;;;;;;;;5043688;28;20123;-68
2022/06/03 04:11:19;;;;;;;0.10;0.10;;;;;;;;;;5047823;28;20095;-68
2022/06/03 04:14:03;;;;;;;0.20;0.20;;;;;;;;;;5045865;28;20074;-68
2022/06/03 04:16:52;;;;;;;0.10;0.10;;;;;;;;;;5046346;28;20045;-68
2022/06/03 04:19:34;;;;;;;0.10;0.10;;;;;;;;;;5021004;28;20140;-68
2022/06/03 04:22:28;;;;;;;0.10;0.10;;;;;;;;;;5043005;28;20129;-67
2022/06/03 04:25:07;;;;;;;0.55;0.32;;;;;;;;;;5046704;28;20088;-69
2022/06/03 04:27:43;;;;;;;0.03;0.03;;;;;;;;;;5044858;28;20048;-69
2022/06/03 04:30:32;;;;;;;0.10;0.10;;;;;;;;;;5053234;28;20443;-70
2022/06/03 04:33:15;;;;;;;0.00;0.00;;;;;;;;;;5009226;28;20129;-69
2022/06/03 04:35:59;;;;;;;0.00;0.00;;;;;;;;;;5021023;28;20144;-69
2022/06/03 04:38:42;;;;;;;0.47;0.30;;;;;;;;;;5037561;28;20045;-69
2022/06/03 04:41:42;;;;;;;0.10;0.10;;;;;;;;;;5052130;28;20056;-70
2022/06/03 04:44:29;;;;;;;0.20;0.20;;;;;;;;;;5051287;28;20405;-68
2022/06/03 04:47:18;;;;;;;0.10;0.10;;;;;;;;;;5051087;28;20048;-69
2022/06/03 04:50:12;;;;;;;0.10;0.10;;;;;;;;;;5052688;28;20055;-70
2022/06/03 04:53:13;;;;;;;0.13;0.13;;;;;;;;;;5036248;28;20052;-69
2022/06/03 04:56:00;;;;;;;0.30;0.30;;;;;;;;;;5047552;28;20108;-70
2022/06/03 04:58:47;;;;;;;0.10;0.10;;;;;;;;;;5042679;28;20140;-69
2022/06/03 05:01:42;;;;;;;0.10;0.10;;;;;;;;;;5040242;28;20071;-70
2022/06/03 05:04:44;;;;;;;0.35;0.32;;;;;;;;;;5050206;28;20049;-69
2022/06/03 05:07:33;;;;;;;0.20;0.20;;;;;;;;;;5035890;28;20128;-69
2022/06/03 05:10:16;;;;;;;0.00;0.00;;;;;;;;;;5040345;28;20045;-69
2022/06/03 05:13:02;;;;;;;0.00;0.00;;;;;;;;;;5047565;28;20103;-70
2022/06/03 05:15:58;;;;;;;0.00;0.00;;;;;;;;;;5034555;28;20456;-69
2022/06/03 05:18:45;;;;;;;0.65;0.65;;;;;;;;;;4990223;28;20114;-71
2022/06/03 05:21:42;;;;;;;0.08;0.08;;;;;;;;;;5023143;28;20045;-69
2022/06/03 05:24:29;;;;;;;0.05;0.05;;;;;;;;;;5040724;28;20659;-69
2022/06/03 05:27:16;;;;;;;0.00;0.00;;;;;;;;;;5042037;28;20385;-69
2022/06/03 05:29:54;;;;;;;0.40;0.40;;;;;;;;;;5041178;28;20080;-69
2022/06/03 05:32:42;;;;;;;0.82;0.82;;;;;;;;;;5051005;28;20191;-69
2022/06/03 05:35:25;;;;;;;0.25;0.25;;;;;;;;;;5045293;28;20141;-69
2022/06/03 05:38:01;;;;;;;0.13;0.13;;;;;;;;;;5040476;28;20045;-70
2022/06/03 05:40:38;;;;;;;0.20;0.20;;;;;;;;;;5039804;28;20060;-69
2022/06/03 05:43:22;;;;;;;0.13;0.13;;;;;;;;;;5045707;28;20080;-69
2022/06/03 05:46:07;;;;;;;0.35;0.35;;;;;;;;;;5047291;28;20504;-69
2022/06/03 05:48:43;;;;;;;0.00;0.00;;;;;;;;;;5046203;28;20148;-69
2022/06/03 05:51:16;;;;;;;0.10;0.10;;;;;;;;;;5047062;28;20353;-70
2022/06/03 05:53:51;;;;;;;0.20;0.20;;;;;;;;;;5039377;28;20064;-69
2022/06/03 05:56:37;;;;;;;0.82;0.57;;;;;;;;;;5050560;28;20424;-70
2022/06/03 05:59:09;;;;;;;0.47;0.47;;;;;;;;;;5039927;28;20123;-69
2022/06/03 06:01:45;;;;;;;0.17;0.17;;;;;;;;;;5033684;28;20053;-71
2022/06/03 06:04:20;;;;;;;0.47;0.43;;;;;;;;;;5036455;28;20041;-69
2022/06/03 06:07:05;;;;;;;0.00;0.00;;;;;;;;;;5043732;28;20049;-70
2022/06/03 06:09:51;;;;;;;0.52;0.20;;;;;;;;;;5045986;28;20056;-69
2022/06/03 06:12:26;;;;;;;0.82;0.80;;;;;;;;;;5050128;28;20060;-69
2022/06/03 06:14:59;;;;;;;0.30;0.30;;;;;;;;;;5030565;28;20053;-68
2022/06/03 06:17:38;;;;;;;0.10;0.10;;;;;;;;;;5039516;28;20135;-68
2022/06/03 06:20:12;;;;;;;1.10;0.52;;;;;;;;;;5032263;28;20064;-69
2022/06/03 06:22:47;;;;;;;0.20;0.13;;;;;;;;;;5046953;28;20049;-69
2022/06/03 06:25:20;;;;;;;0.20;0.20;;;;;;;;;;5049949;28;20548;-69
2022/06/03 06:27:59;;;;;;;0.20;0.20;;;;;;;;;;5039040;28;21326;-69
2022/06/03 06:30:46;;;;;;;0.05;0.05;;;;;;;;;;5033965;28;20051;-69
2022/06/03 06:33:29;;;;;;;0.05;0.05;;;;;;;;;;4998758;28;20037;-70
2022/06/03 06:36:07;;;;;;;0.17;0.17;;;;;;;;;;5045067;28;20073;-68
2022/06/03 06:38:40;;;;;;;0.52;0.32;;;;;;;;;;5044337;28;20057;-69
2022/06/03 06:41:18;;;;;;;0.00;0.00;;;;;;;;;;5049130;28;20041;-71
2022/06/03 06:43:50;;;;;;;0.73;0.22;;;;;;;;;;5051920;28;20055;-69
2022/06/03 06:46:26;;;;;;;0.17;0.17;;;;;;;;;;5049638;28;20049;-69
2022/06/03 06:49:04;;;;;;;0.57;0.15;;;;;;;;;;5049963;28;20095;-68
2022/06/03 06:51:36;;;;;;;0.20;0.20;;;;;;;;;;5041799;28;20095;-68
2022/06/03 06:54:07;;;;;;;0.03;0.03;;;;;;;;;;5047543;28;20459;-70
2022/06/03 06:56:41;;;;;;;0.10;0.10;;;;;;;;;;5048462;28;20091;-69
2022/06/03 06:59:12;;;;;;;0.20;0.20;;;;;;;;;;5041066;28;20045;-68
2022/06/03 07:01:43;;;;;;;0.15;0.15;;;;;;;;;;5034610;28;20583;-68
2022/06/03 07:04:13;;;;;;;0.10;0.10;;;;;;;;;;5048525;28;20045;-68
2022/06/03 07:06:43;;;;;;;0.20;0.20;;;;;;;;;;5047527;28;20480;-68
2022/06/03 07:09:26;;;;;;;0.63;0.63;;;;;;;;;;5053787;28;20064;-68
2022/06/03 07:12:02;;;;;;;0.00;0.00;;;;;;;;;;5044741;28;20076;-69
2022/06/03 07:14:33;;;;;;;0.00;0.00;;;;;;;;;;5047284;28;20045;-69
2022/06/03 07:19:57;;;;;;;0.00;0.00;;;;;;;;;;5034492;28;20048;-68
2022/06/03 07:22:30;;;;;;;0.47;0.20;;;;;;;;;;5030871;28;20084;-69
2022/06/03 07:25:00;;;;;;;0.32;0.32;;;;;;;;;;5046668;28;20065;-69
2022/06/03 07:27:32;;;;;;;0.10;0.10;;;;;;;;;;5035784;28;20057;-68
2022/06/03 07:30:04;;;;;;;0.28;0.28;;;;;;;;;;5041573;28;20401;-69
2022/06/03 07:32:38;;;;;;;0.20;0.20;;;;;;;;;;5054651;28;20069;-69
2022/06/03 07:35:11;;;;;;;0.03;0.03;;;;;;;;;;5044915;28;20057;-69
2022/06/03 07:37:47;;;;;;;0.20;0.20;;;;;;;;;;5049612;28;20052;-68
2022/06/03 07:40:19;;;;;;;0.20;0.20;;;;;;;;;;5042749;28;20095;-68
2022/06/03 07:42:54;;;;;;;0.00;0.00;;;;;;;;;;5050419;28;20415;-68
2022/06/03 07:45:36;;;;;;;0.05;0.05;;;;;;;;;;5051334;28;20084;-70
2022/06/03 07:48:06;;;;;;;0.10;0.10;;;;;;;;;;5045680;28;20049;-68
2022/06/03 07:50:37;;;;;;;0.10;0.10;;;;;;;;;;5052559;28;20067;-68
2022/06/03 07:53:09;;;;;;;0.00;0.00;;;;;;;;;;5048132;28;20132;-68
2022/06/03 07:55:38;;;;;;;0.00;0.00;;;;;;;;;;5051749;28;20122;-68
2022/06/03 07:58:15;;;;;;;0.10;0.10;;;;;;;;;;5043908;28;20130;-70
2022/06/03 08:00:45;;;;;;;0.25;0.20;;;;;;;;;;5049948;28;20094;-69
2022/06/03 08:03:15;;;;;;;0.50;0.30;;;;;;;;;;5047512;28;20049;-69
2022/06/03 08:05:45;;;;;;;0.00;0.00;;;;;;;;;;5051928;28;20471;-69
2022/06/03 08:11:07;;;;;;;0.75;0.20;;;;;;;;;;5043987;28;20127;-68
2022/06/03 08:13:48;;;;;;;0.00;0.00;;;;;;;;;;5052499;28;20846;-69
2022/06/03 08:16:22;;;;;;;0.40;0.40;;;;;;;;;;5048455;28;20083;-68
2022/06/03 08:18:51;;;;;;;0.32;0.22;;;;;;;;;;5048731;28;20048;-68
2022/06/03 08:21:23;;;;;;;0.30;0.28;;;;;;;;;;5053135;28;20053;-68
2022/06/03 08:23:53;;;;;;;0.28;0.28;;;;;;;;;;5042192;28;20084;-68
2022/06/03 08:26:24;;;;;;;0.20;0.17;;;;;;;;;;5046434;28;20048;-68
2022/06/03 08:28:57;;;;;;;0.52;0.52;;;;;;;;;;5041511;28;20046;-70
2022/06/03 08:31:26;;;;;;;0.68;0.68;;;;;;;;;;5045182;28;20051;-69
2022/06/03 08:33:58;;;;;;;0.47;0.47;;;;;;;;;;5048001;28;20411;-69
2022/06/03 08:36:27;;;;;;;0.17;0.17;;;;;;;;;;5047231;28;20467;-69
2022/06/03 08:38:59;;;;;;;0.00;0.00;;;;;;;;;;5047214;28;20437;-69
2022/06/03 08:41:34;;;;;;;0.63;0.60;;;;;;;;;;5049668;28;20045;-68
2022/06/03 08:44:15;;;;;;;0.20;0.20;;;;;;;;;;5052017;28;20041;-68
2022/06/03 08:46:50;;;;;;;0.00;0.00;;;;;;;;;;5048078;28;20045;-69
2022/06/03 08:49:19;;;;;;;;;;;;;;;;;;5041846;28;20084;-68
2022/06/03 08:51:51;;;;;;;0.22;0.22;;;;;;;;;;5038672;28;19990;-68
2022/06/03 08:54:25;;;;;;;0.20;0.20;;;;;;;;;;5050287;28;20044;-69
2022/06/03 08:56:54;;;;;;;0.00;0.00;;;;;;;;;;5046482;28;20496;-68
2022/06/03 08:59:27;;;;;;;0.00;0.00;;;;;;;;;;5038155;28;20069;-68
2022/06/03 09:01:57;;;;;;;1.75;0.93;;;;;;;;;;5041756;28;20501;-67
2022/06/03 09:04:28;;;;;;;0.20;0.20;;;;;;;;;;5044788;28;20044;-68
2022/06/03 09:07:02;;;;;;;0.10;0.10;;;;;;;;;;5031640;28;20129;-69
2022/06/03 09:09:35;;;;;;;0.10;0.10;;;;;;;;;;5037317;28;20060;-68
2022/06/03 09:12:11;;;;;;;0.40;0.40;;;;;;;;;;5045085;28;20041;-69
2022/06/03 09:14:43;;;;;;;0.15;0.15;;;;;;;;;;5025881;28;20417;-69
2022/06/03 09:17:27;;;;;;;0.20;0.20;;;;;;;;;;5043905;28;20084;-69
2022/06/03 09:19:57;;;;;;;0.52;0.10;;;;;;;;;;5041653;28;20052;-69
2022/06/03 09:22:28;;;;;;;0.00;0.00;;;;;;;;;;5048243;28;20390;-68
2022/06/03 09:24:58;;;;;;;0.00;0.00;;;;;;;;;;5044281;28;20156;-70
2022/06/03 09:27:27;;;;;;;0.30;0.30;;;;;;;;;;5047960;28;20132;-69
2022/06/03 09:30:02;;;;;;;0.00;0.00;;;;;;;;;;5054738;28;20056;-69
2022/06/03 09:32:38;;;;;;;0.38;0.38;;;;;;;;;;5050275;28;20053;-69
2022/06/03 09:35:08;;;;;;;0.03;0.03;;;;;;;;;;5046866;28;20053;-69
2022/06/03 09:37:41;;;;;;;0.10;0.10;;;;;;;;;;5046098;28;20110;-68
2022/06/03 09:40:14;;;;;;;0.40;0.25;;;;;;;;;;5053522;28;20101;-68
2022/06/03 09:42:46;;;;;;;0.00;0.00;;;;;;;;;;5046431;28;20050;-68
2022/06/03 09:45:20;;;;;;;0.10;0.10;;;;;;;;;;5049429;28;20063;-69
2022/06/03 09:47:49;;;;;;;0.00;0.00;;;;;;;;;;5047086;28;20056;-67
2022/06/03 09:50:18;;;;;;;0.00;0.00;;;;;;;;;;5032677;28;20049;-68
2022/06/03 09:52:48;;;;;;;0.50;0.20;;;;;;;;;;4992335;28;1392023;-68
2022/06/03 09:55:27;;;;;;;0.00;0.00;;;;;;;;;;5043295;28;20049;-68
2022/06/03 09:57:57;;;;;;;0.03;0.03;;;;;;;;;;5047600;28;20037;-69
2022/06/03 10:00:29;;;;;;;0.43;0.43;;;;;;;;;;5045869;28;20068;-69
2022/06/03 10:02:59;;;;;;;0.20;0.20;;;;;;;;;;5051343;28;20060;-68
2022/06/03 10:05:28;;;;;;;0.10;0.10;;;;;;;;;;5054847;28;20123;-69
2022/06/03 10:08:00;;;;;;;0.73;0.40;;;;;;;;;;5051891;28;20488;-69
2022/06/03 10:13:15;;;;;;;0.38;0.20;;;;;;;;;;5052380;28;20045;-67
2022/06/03 10:15:50;;;;;;;0.10;0.10;;;;;;;;;;5047237;28;20080;-69
2022/06/03 10:18:34;;;;;;;0.13;0.10;;;;;;;;;;5047645;28;20055;-68
2022/06/03 10:21:17;;;;;;;0.28;0.25;;;;;;;;;;5046720;28;20045;-68
2022/06/03 10:23:49;;;;;;;0.20;0.10;;;;;;;;;;5025383;28;20057;-68
2022/06/03 10:26:23;;;;;;;0.10;0.10;;;;;;;;;;5041949;28;20046;-68
2022/06/03 10:28:53;;;;;;;0.45;0.43;;;;;;;;;;5041528;28;20068;-69
2022/06/03 10:31:30;;;;;;;0.20;0.20;;;;;;;;;;5046477;28;20051;-69
2022/06/03 10:34:00;;;;;;;0.55;0.20;;;;;;;;;;5044780;28;20409;-70
2022/06/03 10:36:30;;;;;;;0.00;0.00;;;;;;;;;;5055167;28;20053;-70
2022/06/03 10:38:59;;;;;;;0.10;0.03;;;;;;;;;;5052891;28;20049;-69
2022/06/03 10:41:40;;;;;;;0.10;0.10;;;;;;;;;;5050162;28;20048;-70
2022/06/03 10:44:13;;;;;;;0.05;0.05;;;;;;;;;;5039863;28;20041;-69
2022/06/03 10:46:55;;;;;;;0.00;0.00;;;;;;;;;;5045010;28;20080;-69
2022/06/03 10:49:24;;;;;;;0.05;0.05;;;;;;;;;;5021236;28;20120;-69
2022/06/03 11:03:06;;;;;;;0.20;0.20;;;;;;;;;;5051333;28;20500;-69
2022/06/03 11:05:37;;;;;;;1.30;0.57;;;;;;;;;;5049071;28;20051;-69
2022/06/03 11:08:07;;;;;;;0.10;0.10;;;;;;;;;;5050712;28;20045;-69
2022/06/03 11:10:38;;;;;;;0.10;0.10;;;;;;;;;;5049538;28;20388;-69
2022/06/03 11:13:15;;;;;;;0.50;0.40;;;;;;;;;;5048159;28;20041;-69
2022/06/03 11:15:47;;;;;;;0.10;0.00;;;;;;;;;;5045547;28;20515;-69
2022/06/03 11:18:21;;;;;;;0.20;0.20;;;;;;;;;;5043286;28;20049;-69
2022/06/03 11:20:54;;;;;;;0.00;0.00;;;;;;;;;;5047658;28;20045;-69
2022/06/03 11:23:24;;;;;;;0.75;0.70;;;;;;;;;;5048296;28;20049;-69
2022/06/03 11:25:54;;;;;;;0.03;0.03;;;;;;;;;;5043435;28;20091;-69
2022/06/03 11:28:24;;;;;;;0.30;0.20;;;;;;;;;;5045085;28;20045;-69
2022/06/03 11:31:13;;;;;;;0.20;0.20;;;;;;;;;;5042298;28;20051;-69
2022/06/03 11:33:49;;;;;;;0.10;0.10;;;;;;;;;;5045918;28;20448;-69
2022/06/03 11:36:21;;;;;;;0.10;0.10;;;;;;;;;;5044619;28;20068;-69
2022/06/03 11:38:51;;;;;;;0.00;0.00;;;;;;;;;;5047576;28;20460;-70
2022/06/03 11:41:22;;;;;;;0.30;0.30;;;;;;;;;;5053239;28;20045;-69
2022/06/03 11:43:55;;;;;;;0.00;0.00;;;;;;;;;;5041644;28;20045;-69
2022/06/03 11:46:30;;;;;;;0.00;0.00;;;;;;;;;;5041227;28;20048;-69
2022/06/03 11:49:01;;;;;;;0.00;0.00;;;;;;;;;;5047476;28;20045;-69
2022/06/03 11:51:29;;;;;;;0.45;0.32;;;;;;;;;;5046714;28;20063;-70
2022/06/03 11:53:58;;;;;;;0.17;0.17;;;;;;;;;;5029513;28;20114;-69
2022/06/03 11:56:28;;;;;;;0.52;0.32;;;;;;;;;;5045042;28;20385;-70
2022/06/03 11:59:01;;;;;;;0.30;0.30;;;;;;;;;;5037148;28;20488;-70
2022/06/03 12:01:45;;;;;;;0.30;0.17;;;;;;;;;;5034356;28;20052;-70
2022/06/03 12:04:19;;;;;;;0.40;0.30;;;;;;;;;;5028486;28;20513;-70
2022/06/03 12:06:50;;;;;;;0.50;0.50;;;;;;;;;;5024107;28;20117;-70
2022/06/03 12:09:24;;;;;;;0.10;0.05;;;;;;;;;;5025326;28;20562;-70
2022/06/03 12:14:47;;;;;;;0.00;0.00;;;;;;;;;;5043688;28;20052;-68
2022/06/03 12:17:28;;;;;;;0.57;0.45;;;;;;;;;;5049674;28;20072;-69
2022/06/03 12:19:59;;;;;;;0.10;0.10;;;;;;;;;;5043651;28;20056;-70
2022/06/03 12:22:35;;;;;;;0.50;0.47;;;;;;;;;;5047452;28;20485;-69
2022/06/03 12:25:44;;;;;;;0.40;0.40;;;;;;;;;;5043511;28;20411;-70
2022/06/03 12:28:19;;;;;;;0.32;0.32;;;;;;;;;;5050434;28;20106;-68
2022/06/03 12:30:50;;;;;;;0.68;0.32;;;;;;;;;;5035918;28;20099;-71
2022/06/03 12:33:24;;;;;;;0.10;0.10;;;;;;;;;;5035752;28;20469;-69
2022/06/03 12:35:56;;;;;;;0.10;0.10;;;;;;;;;;5048840;28;20077;-69
2022/06/03 12:38:45;;;;;;;0.22;0.20;;;;;;;;;;5039490;28;20409;-68
2022/06/03 12:41:34;;;;;;;0.10;0.10;;;;;;;;;;5044886;28;20045;-68
2022/06/03 12:44:03;;;;;;;0.15;0.15;;;;;;;;;;5045630;28;20124;-68
2022/06/03 12:46:36;;;;;;;0.40;0.40;;;;;;;;;;5045798;28;20565;-68
2022/06/03 12:49:05;;;;;;;0.10;0.10;;;;;;;;;;5048028;28;20057;-68
2022/06/03 12:51:55;;;;;;;0.30;0.20;;;;;;;;;;5054587;28;20055;-68
2022/06/03 12:54:24;;;;;;;0.15;0.15;;;;;;;;;;5043344;28;20095;-69
2022/06/03 12:56:57;;;;;;;0.65;0.30;;;;;;;;;;5048999;28;20173;-69
2022/06/03 12:59:29;;;;;;;0.38;0.20;;;;;;;;;;5047553;28;20399;-69
2022/06/03 13:02:03;;;;;;;0.47;0.13;;;;;;;;;;5045041;28;20132;-68
2022/06/03 13:04:53;;;;;;;0.08;0.08;;;;;;;;;;5051061;28;20045;-68
2022/06/03 13:07:41;;;;;;;0.25;0.25;;;;;;;;;;5044622;28;20048;-69
2022/06/03 13:10:54;;;;;;;0.15;0.15;;;;;;;;;;5042741;28;20482;-68
2022/06/03 13:13:48;;;;;;;0.55;0.22;;;;;;;;;;5049790;28;20048;-69
2022/06/03 13:16:27;;;;;;;0.20;0.20;;;;;;;;;;5051975;28;20492;-68
2022/06/03 13:18:56;;;;;;;0.15;0.15;;;;;;;;;;5045638;28;20183;-68
2022/06/03 13:21:27;;;;;;;0.93;0.22;;;;;;;;;;5040219;28;20082;-69
2022/06/03 13:24:01;;;;;;;0.38;0.28;;;;;;;;;;5045344;28;20060;-67
2022/06/03 13:26:47;;;;;;;0.17;0.17;;;;;;;;;;5044076;28;20049;-68
2022/06/03 13:29:37;;;;;;;0.25;0.20;;;;;;;;;;5009904;28;20057;-68
2022/06/03 13:32:15;;;;;;;0.30;0.30;;;;;;;;;;5044080;28;20103;-67
2022/06/03 13:34:44;;;;;;;0.85;0.85;;;;;;;;;;5042381;28;20183;-69
2022/06/03 13:37:33;;;;;;;0.25;0.20;;;;;;;;;;5045843;28;20041;-68
2022/06/03 13:40:06;;;;;;;0.52;0.52;;;;;;;;;;5032139;28;20056;-69
2022/06/03 13:43:03;;;;;;;0.15;0.15;;;;;;;;;;5042867;28;20451;-68
2022/06/03 13:45:46;;;;;;;0.52;0.52;;;;;;;;;;5042524;28;20641;-68
2022/06/03 13:48:17;;;;;;;0.22;0.22;;;;;;;;;;5036867;28;20511;-68
2022/06/03 13:50:48;;;;;;;0.57;0.57;;;;;;;;;;5033398;28;20049;-69
2022/06/03 13:53:25;;;;;;;0.30;0.30;;;;;;;;;;5031799;28;20065;-70
2022/06/03 13:55:56;;;;;;;0.30;0.30;;;;;;;;;;5020008;28;20052;-69
2022/06/03 13:58:27;;;;;;;0.40;0.30;;;;;;;;;;5028929;28;20500;-69
2022/06/03 14:01:00;;;;;;;0.32;0.20;;;;;;;;;;5027379;28;20055;-69
2022/06/03 14:03:33;;;;;;;0.35;0.20;;;;;;;;;;5015837;28;20100;-70
2022/06/03 14:06:07;;;;;;;3.13;0.93;;;;;;;;;;5018426;28;20046;-70
2022/06/03 14:08:40;;;;;;;0.50;0.30;;;;;;;;;;5019978;28;20571;-69
2022/06/03 14:11:13;;;;;;;0.20;0.20;;;;;;;;;;5032681;28;20095;-70
2022/06/03 14:13:48;;;;;;;0.43;0.40;;;;;;;;;;5021352;28;20052;-69
2022/06/03 14:16:24;;;;;;;0.35;0.35;;;;;;;;;;5018239;28;20050;-70
2022/06/03 14:18:56;;;;;;;0.20;0.20;;;;;;;;;;5017517;28;20413;-70
2022/06/03 14:21:43;;;;;;;0.20;0.20;;;;;;;;;;5020477;28;20050;-71
2022/06/03 14:24:14;;;;;;;0.43;0.30;;;;;;;;;;5024133;28;20060;-70
2022/06/03 14:26:47;;;;;;;0.20;0.20;;;;;;;;;;5018834;28;20034;-69
2022/06/03 14:29:21;;;;;;;0.20;0.20;;;;;;;;;;4980766;28;20100;-69
2022/06/03 14:31:52;;;;;;;0.82;0.77;;;;;;;;;;4995218;28;20054;-69
2022/06/03 14:34:24;;;;;;;0.43;0.35;;;;;;;;;;4998147;28;20402;-69
2022/06/03 14:36:53;;;;;;;0.28;0.17;;;;;;;;;;4995126;28;20043;-69
2022/06/03 14:39:24;;;;;;;0.22;0.15;;;;;;;;;;4994942;28;20092;-69
2022/06/03 14:41:54;;;;;;;0.30;0.30;;;;;;;;;;4994472;28;20065;-69
2022/06/03 14:44:26;;;;;;;0.40;0.17;;;;;;;;;;4998684;28;20505;-69
2022/06/03 14:46:57;;;;;;;0.47;0.47;;;;;;;;;;4995248;28;20129;-70
2022/06/03 14:49:28;;;;;;;0.20;0.10;;;;;;;;;;5000152;28;20073;-70
2022/06/03 14:52:00;;;;;;;1.00;0.52;;;;;;;;;;5007655;28;20093;-69
2022/06/03 14:54:30;;;;;;;0.30;0.30;;;;;;;;;;4990874;28;20061;-69
2022/06/03 14:57:01;;;;;;;0.30;0.30;;;;;;;;;;4994591;28;20126;-70
2022/06/03 14:59:49;;;;;;;0.73;0.40;;;;;;;;;;4996279;28;20061;-70
2022/06/03 15:02:20;;;;;;;0.10;0.10;;;;;;;;;;5039949;28;20467;-69
2022/06/03 15:04:51;;;;;;;0.03;0.03;;;;;;;;;;5018103;28;20583;-70
2022/06/03 15:07:22;;;;;;;0.32;0.32;;;;;;;;;;5011928;28;20500;-70
2022/06/03 15:09:52;;;;;;;0.15;0.13;;;;;;;;;;5015687;28;20056;-70
2022/06/03 15:12:22;;;;;;;0.38;0.38;;;;;;;;;;5023495;28;20468;-70
2022/06/03 15:14:52;;;;;;;0.10;0.10;;;;;;;;;;5025968;28;20527;-70
2022/06/03 15:17:24;;;;;;;0.10;0.10;;;;;;;;;;5025772;28;20088;-70
2022/06/03 15:19:54;;;;;;;0.08;0.08;;;;;;;;;;5006556;28;20049;-69
2022/06/03 15:22:24;;;;;;;0.40;0.17;;;;;;;;;;5013650;28;20074;-70
2022/06/03 15:24:54;;;;;;;0.10;0.10;;;;;;;;;;5031488;28;20057;-70
2022/06/03 15:27:26;;;;;;;0.25;0.25;;;;;;;;;;5033582;28;20041;-69
2022/06/03 15:29:56;;;;;;;0.20;0.20;;;;;;;;;;5022107;28;20124;-69
2022/06/03 15:32:26;;;;;;;0.50;0.50;;;;;;;;;;5018650;28;20088;-69
2022/06/03 15:35:00;;;;;;;0.30;0.30;;;;;;;;;;5013932;28;20065;-69
2022/06/03 15:37:29;;;;;;;0.28;0.28;;;;;;;;;;5028227;28;20061;-69
2022/06/03 15:39:58;;;;;;;0.32;0.30;;;;;;;;;;5026438;28;20135;-69
2022/06/03 15:42:29;;;;;;;0.30;0.30;;;;;;;;;;5025411;28;20117;-70
2022/06/03 15:45:03;;;;;;;0.08;0.05;;;;;;;;;;5024003;28;20056;-69
2022/06/03 15:47:36;;;;;;;0.20;0.20;;;;;;;;;;5021891;28;20078;-70
2022/06/03 15:50:12;;;;;;;0.55;0.43;;;;;;;;;;5011820;28;20505;-70
2022/06/03 15:52:49;;;;;;;0.25;0.22;;;;;;;;;;5036428;28;20057;-70
2022/06/03 15:55:27;;;;;;;0.20;0.20;;;;;;;;;;5021750;28;20508;-69
2022/06/03 15:57:57;;;;;;;0.20;0.20;;;;;;;;;;5018132;28;20084;-69
2022/06/03 16:00:35;;;;;;;1.08;0.80;;;;;;;;;;5026981;28;20038;-69
2022/06/03 16:03:06;;;;;;;0.20;0.10;;;;;;;;;;5023129;28;20095;-69
2022/06/03 16:05:44;;;;;;;0.65;0.40;;;;;;;;;;5021558;28;20053;-70
2022/06/03 16:08:25;;;;;;;0.57;0.45;;;;;;;;;;5017078;28;20073;-70
2022/06/03 16:10:58;;;;;;;0.10;0.00;;;;;;;;;;5010692;28;20101;-68